sensor_id;sensor_type;location;lat;lon;timestamp;temperature;humidity
36800;DHT22;22752;51.960;5.886;2022-07-15T00:00:10;13.40;99.90
36800;DHT22;22752;51.960;5.886;2022-07-15T00:02:37;13.30;99.90
36800;DHT22;22752;51.960;5.886;2022-07-15T00:05:04;13.30;99.90
36800;DHT22;22752;51.960;5.886;2022-07-15T00:07:31;13.20;99.90
36800;DHT22;22752;51.960;5.886;2022-07-15T00:09:56;13.20;99.90
36800;DHT22;22752;51.960;5.886;2022-07-15T00:15:12;13.10;99.90
36800;DHT22;22752;51.960;5.886;2022-07-15T00:17:39;13.10;99.90
36800;DHT22;22752;51.960;5.886;2022-07-15T00:20:05;13.00;99.90
36800;DHT22;22752;51.960;5.886;2022-07-15T00:22:31;13.00;99.90
36800;DHT22;22752;51.960;5.886;2022-07-15T00:24:57;12.90;99.90
36800;DHT22;22752;51.960;5.886;2022-07-15T00:27:23;12.90;99.90
36800;DHT22;22752;51.960;5.886;2022-07-15T00:29:49;12.80;99.90
36800;DHT22;22752;51.960;5.886;2022-07-15T00:32:16;12.70;99.90
36800;DHT22;22752;51.960;5.886;2022-07-15T00:34:41;12.70;99.90
36800;DHT22;22752;51.960;5.886;2022-07-15T00:37:07;12.70;99.90
36800;DHT22;22752;51.960;5.886;2022-07-15T00:39:33;12.70;99.90
36800;DHT22;22752;51.960;5.886;2022-07-15T00:41:59;12.60;99.90
36800;DHT22;22752;51.960;5.886;2022-07-15T00:44:25;12.60;99.90
36800;DHT22;22752;51.960;5.886;2022-07-15T00:46:52;12.50;99.90
36800;DHT22;22752;51.960;5.886;2022-07-15T00:49:18;12.50;99.90
36800;DHT22;22752;51.960;5.886;2022-07-15T00:51:47;12.50;99.90
36800;DHT22;22752;51.960;5.886;2022-07-15T00:54:14;12.40;99.90
36800;DHT22;22752;51.960;5.886;2022-07-15T00:56:48;12.40;99.90
36800;DHT22;22752;51.960;5.886;2022-07-15T00:59:15;12.40;99.90
36800;DHT22;22752;51.960;5.886;2022-07-15T01:01:43;12.40;99.90
36800;DHT22;22752;51.960;5.886;2022-07-15T01:04:11;12.40;99.90
36800;DHT22;22752;51.960;5.886;2022-07-15T01:06:39;12.50;99.90
36800;DHT22;22752;51.960;5.886;2022-07-15T01:09:05;12.60;99.90
36800;DHT22;22752;51.960;5.886;2022-07-15T01:11:31;12.60;99.90
36800;DHT22;22752;51.960;5.886;2022-07-15T01:13:58;12.60;99.90
36800;DHT22;22752;51.960;5.886;2022-07-15T01:16:24;12.70;99.90
36800;DHT22;22752;51.960;5.886;2022-07-15T01:18:50;12.70;99.90
36800;DHT22;22752;51.960;5.886;2022-07-15T01:21:16;12.90;99.90
36800;DHT22;22752;51.960;5.886;2022-07-15T01:23:41;12.90;99.90
36800;DHT22;22752;51.960;5.886;2022-07-15T01:26:12;13.10;99.90
36800;DHT22;22752;51.960;5.886;2022-07-15T01:28:38;13.10;99.90
36800;DHT22;22752;51.960;5.886;2022-07-15T01:31:04;13.20;99.90
36800;DHT22;22752;51.960;5.886;2022-07-15T01:33:31;13.20;99.90
36800;DHT22;22752;51.960;5.886;2022-07-15T01:35:58;13.30;99.90
36800;DHT22;22752;51.960;5.886;2022-07-15T01:38:24;13.30;99.90
36800;DHT22;22752;51.960;5.886;2022-07-15T01:40:50;13.30;99.90
36800;DHT22;22752;51.960;5.886;2022-07-15T01:43:16;13.30;99.90
36800;DHT22;22752;51.960;5.886;2022-07-15T01:45:43;13.20;99.90
36800;DHT22;22752;51.960;5.886;2022-07-15T01:48:12;13.20;99.90
36800;DHT22;22752;51.960;5.886;2022-07-15T01:50:58;13.20;99.90
36800;DHT22;22752;51.960;5.886;2022-07-15T01:53:25;13.20;99.90
36800;DHT22;22752;51.960;5.886;2022-07-15T01:55:51;13.20;99.90
36800;DHT22;22752;51.960;5.886;2022-07-15T01:58:17;13.30;99.90
36800;DHT22;22752;51.960;5.886;2022-07-15T02:00:43;13.30;99.90
36800;DHT22;22752;51.960;5.886;2022-07-15T02:03:08;13.30;99.90
36800;DHT22;22752;51.960;5.886;2022-07-15T02:05:35;13.40;99.90
36800;DHT22;22752;51.960;5.886;2022-07-15T02:08:02;13.50;99.90
36800;DHT22;22752;51.960;5.886;2022-07-15T02:10:28;13.50;99.90
36800;DHT22;22752;51.960;5.886;2022-07-15T02:13:09;13.60;99.90
36800;DHT22;22752;51.960;5.886;2022-07-15T02:15:35;13.60;99.90
36800;DHT22;22752;51.960;5.886;2022-07-15T02:18:01;13.70;99.90
36800;DHT22;22752;51.960;5.886;2022-07-15T02:20:27;13.70;99.90
36800;DHT22;22752;51.960;5.886;2022-07-15T02:22:53;13.70;99.90
36800;DHT22;22752;51.960;5.886;2022-07-15T02:25:23;13.80;99.90
36800;DHT22;22752;51.960;5.886;2022-07-15T02:27:54;13.80;99.90
36800;DHT22;22752;51.960;5.886;2022-07-15T02:30:26;13.80;99.90
36800;DHT22;22752;51.960;5.886;2022-07-15T02:32:52;13.80;99.90
36800;DHT22;22752;51.960;5.886;2022-07-15T02:35:18;13.90;99.90
36800;DHT22;22752;51.960;5.886;2022-07-15T02:37:44;13.90;99.90
36800;DHT22;22752;51.960;5.886;2022-07-15T02:40:10;13.90;99.90
36800;DHT22;22752;51.960;5.886;2022-07-15T02:42:36;14.00;99.90
36800;DHT22;22752;51.960;5.886;2022-07-15T02:45:02;14.00;99.90
36800;DHT22;22752;51.960;5.886;2022-07-15T02:47:28;14.00;99.90
36800;DHT22;22752;51.960;5.886;2022-07-15T02:49:54;14.00;99.90
36800;DHT22;22752;51.960;5.886;2022-07-15T02:52:19;14.00;99.90
36800;DHT22;22752;51.960;5.886;2022-07-15T02:54:45;14.00;99.90
36800;DHT22;22752;51.960;5.886;2022-07-15T02:57:10;14.00;99.90
36800;DHT22;22752;51.960;5.886;2022-07-15T02:59:36;14.00;99.90
36800;DHT22;22752;51.960;5.886;2022-07-15T03:02:02;14.00;99.90
36800;DHT22;22752;51.960;5.886;2022-07-15T03:04:27;14.00;99.90
36800;DHT22;22752;51.960;5.886;2022-07-15T03:06:53;14.00;99.90
36800;DHT22;22752;51.960;5.886;2022-07-15T03:09:18;13.90;99.90
36800;DHT22;22752;51.960;5.886;2022-07-15T03:11:44;13.90;99.90
36800;DHT22;22752;51.960;5.886;2022-07-15T03:14:10;13.80;99.90
36800;DHT22;22752;51.960;5.886;2022-07-15T03:16:35;13.80;99.90
36800;DHT22;22752;51.960;5.886;2022-07-15T03:19:01;13.80;99.90
36800;DHT22;22752;51.960;5.886;2022-07-15T03:21:27;13.80;99.90
36800;DHT22;22752;51.960;5.886;2022-07-15T03:23:52;13.70;99.90
36800;DHT22;22752;51.960;5.886;2022-07-15T03:26:19;13.70;99.90
36800;DHT22;22752;51.960;5.886;2022-07-15T03:28:46;13.70;99.90
36800;DHT22;22752;51.960;5.886;2022-07-15T03:31:12;13.70;99.90
36800;DHT22;22752;51.960;5.886;2022-07-15T03:33:38;13.70;99.90
36800;DHT22;22752;51.960;5.886;2022-07-15T03:36:04;13.70;99.90
36800;DHT22;22752;51.960;5.886;2022-07-15T03:38:31;13.60;99.90
36800;DHT22;22752;51.960;5.886;2022-07-15T03:40:56;13.60;99.90
36800;DHT22;22752;51.960;5.886;2022-07-15T03:43:22;13.70;99.90
36800;DHT22;22752;51.960;5.886;2022-07-15T03:45:52;13.70;99.90
36800;DHT22;22752;51.960;5.886;2022-07-15T03:48:18;13.70;99.90
36800;DHT22;22752;51.960;5.886;2022-07-15T03:50:44;13.70;99.90
36800;DHT22;22752;51.960;5.886;2022-07-15T03:53:09;13.70;99.90
36800;DHT22;22752;51.960;5.886;2022-07-15T03:55:36;13.80;99.90
36800;DHT22;22752;51.960;5.886;2022-07-15T03:58:03;13.80;99.90
36800;DHT22;22752;51.960;5.886;2022-07-15T04:00:29;13.90;99.90
36800;DHT22;22752;51.960;5.886;2022-07-15T04:02:55;13.90;99.90
36800;DHT22;22752;51.960;5.886;2022-07-15T04:05:20;14.00;99.90
36800;DHT22;22752;51.960;5.886;2022-07-15T04:07:46;14.00;99.90
36800;DHT22;22752;51.960;5.886;2022-07-15T04:10:13;14.00;99.90
36800;DHT22;22752;51.960;5.886;2022-07-15T04:12:39;14.10;99.90
36800;DHT22;22752;51.960;5.886;2022-07-15T04:15:05;14.10;99.90
36800;DHT22;22752;51.960;5.886;2022-07-15T04:17:31;14.10;99.90
36800;DHT22;22752;51.960;5.886;2022-07-15T04:19:56;14.10;99.90
36800;DHT22;22752;51.960;5.886;2022-07-15T04:22:22;14.10;99.90
36800;DHT22;22752;51.960;5.886;2022-07-15T04:24:48;14.10;99.90
36800;DHT22;22752;51.960;5.886;2022-07-15T04:27:13;14.10;99.90
36800;DHT22;22752;51.960;5.886;2022-07-15T04:29:39;14.00;99.90
36800;DHT22;22752;51.960;5.886;2022-07-15T04:32:05;14.00;99.90
36800;DHT22;22752;51.960;5.886;2022-07-15T04:34:31;14.00;99.90
36800;DHT22;22752;51.960;5.886;2022-07-15T04:36:56;14.00;99.90
36800;DHT22;22752;51.960;5.886;2022-07-15T04:39:22;14.00;99.90
36800;DHT22;22752;51.960;5.886;2022-07-15T04:41:47;14.10;99.90
36800;DHT22;22752;51.960;5.886;2022-07-15T04:44:15;14.10;99.90
36800;DHT22;22752;51.960;5.886;2022-07-15T04:46:41;14.20;99.90
36800;DHT22;22752;51.960;5.886;2022-07-15T04:49:07;14.20;99.90
36800;DHT22;22752;51.960;5.886;2022-07-15T04:51:51;14.20;99.90
36800;DHT22;22752;51.960;5.886;2022-07-15T04:54:16;14.20;99.90
36800;DHT22;22752;51.960;5.886;2022-07-15T04:56:42;14.10;99.90
36800;DHT22;22752;51.960;5.886;2022-07-15T04:59:07;14.10;99.90
36800;DHT22;22752;51.960;5.886;2022-07-15T05:01:33;14.10;99.90
36800;DHT22;22752;51.960;5.886;2022-07-15T05:03:59;14.00;99.90
36800;DHT22;22752;51.960;5.886;2022-07-15T05:06:24;14.10;99.90
36800;DHT22;22752;51.960;5.886;2022-07-15T05:08:50;14.10;99.90
36800;DHT22;22752;51.960;5.886;2022-07-15T05:11:16;14.30;99.90
36800;DHT22;22752;51.960;5.886;2022-07-15T05:13:42;14.40;99.90
36800;DHT22;22752;51.960;5.886;2022-07-15T05:16:07;14.60;99.90
36800;DHT22;22752;51.960;5.886;2022-07-15T05:18:33;14.80;99.90
36800;DHT22;22752;51.960;5.886;2022-07-15T05:20:59;15.00;99.90
36800;DHT22;22752;51.960;5.886;2022-07-15T05:23:24;15.30;99.90
36800;DHT22;22752;51.960;5.886;2022-07-15T05:25:50;15.70;99.90
36800;DHT22;22752;51.960;5.886;2022-07-15T05:28:16;16.30;99.90
36800;DHT22;22752;51.960;5.886;2022-07-15T05:30:42;17.30;99.90
36800;DHT22;22752;51.960;5.886;2022-07-15T05:33:08;18.00;99.90
36800;DHT22;22752;51.960;5.886;2022-07-15T05:35:34;19.10;99.90
36800;DHT22;22752;51.960;5.886;2022-07-15T05:38:00;20.20;99.90
36800;DHT22;22752;51.960;5.886;2022-07-15T05:40:26;21.20;99.90
36800;DHT22;22752;51.960;5.886;2022-07-15T05:42:51;22.10;99.90
36800;DHT22;22752;51.960;5.886;2022-07-15T05:45:18;22.90;99.90
36800;DHT22;22752;51.960;5.886;2022-07-15T05:47:49;23.50;99.40
36800;DHT22;22752;51.960;5.886;2022-07-15T05:50:15;24.00;97.60
36800;DHT22;22752;51.960;5.886;2022-07-15T05:52:41;24.50;96.80
36800;DHT22;22752;51.960;5.886;2022-07-15T05:55:06;25.00;95.70
36800;DHT22;22752;51.960;5.886;2022-07-15T05:57:33;25.50;94.60
36800;DHT22;22752;51.960;5.886;2022-07-15T05:59:58;25.80;93.70
36800;DHT22;22752;51.960;5.886;2022-07-15T06:02:24;26.10;92.90
36800;DHT22;22752;51.960;5.886;2022-07-15T06:04:49;26.40;91.70
36800;DHT22;22752;51.960;5.886;2022-07-15T06:07:15;26.70;91.00
36800;DHT22;22752;51.960;5.886;2022-07-15T06:09:41;26.80;90.50
36800;DHT22;22752;51.960;5.886;2022-07-15T06:12:06;27.10;90.10
36800;DHT22;22752;51.960;5.886;2022-07-15T06:14:32;27.20;89.10
36800;DHT22;22752;51.960;5.886;2022-07-15T06:16:58;27.20;87.30
36800;DHT22;22752;51.960;5.886;2022-07-15T06:19:24;27.10;86.90
36800;DHT22;22752;51.960;5.886;2022-07-15T06:21:49;27.00;85.40
36800;DHT22;22752;51.960;5.886;2022-07-15T06:24:15;26.70;85.20
36800;DHT22;22752;51.960;5.886;2022-07-15T06:26:41;26.70;86.50
36800;DHT22;22752;51.960;5.886;2022-07-15T06:29:07;26.80;85.50
36800;DHT22;22752;51.960;5.886;2022-07-15T06:31:33;26.90;84.60
36800;DHT22;22752;51.960;5.886;2022-07-15T06:33:58;26.90;84.20
36800;DHT22;22752;51.960;5.886;2022-07-15T06:36:25;26.90;84.00
36800;DHT22;22752;51.960;5.886;2022-07-15T06:38:51;26.90;84.20
36800;DHT22;22752;51.960;5.886;2022-07-15T06:41:16;26.90;82.70
36800;DHT22;22752;51.960;5.886;2022-07-15T06:43:44;26.80;83.30
36800;DHT22;22752;51.960;5.886;2022-07-15T06:46:10;26.80;82.00
36800;DHT22;22752;51.960;5.886;2022-07-15T06:48:35;26.80;82.40
36800;DHT22;22752;51.960;5.886;2022-07-15T06:51:01;27.00;81.80
36800;DHT22;22752;51.960;5.886;2022-07-15T06:53:26;26.90;80.60
36800;DHT22;22752;51.960;5.886;2022-07-15T06:55:52;27.00;81.10
36800;DHT22;22752;51.960;5.886;2022-07-15T06:58:18;27.10;79.30
36800;DHT22;22752;51.960;5.886;2022-07-15T07:00:43;27.00;77.40
36800;DHT22;22752;51.960;5.886;2022-07-15T07:03:09;26.60;77.10
36800;DHT22;22752;51.960;5.886;2022-07-15T07:05:35;26.30;79.20
36800;DHT22;22752;51.960;5.886;2022-07-15T07:08:00;26.40;79.10
36800;DHT22;22752;51.960;5.886;2022-07-15T07:10:26;26.40;79.10
36800;DHT22;22752;51.960;5.886;2022-07-15T07:12:52;26.50;78.20
36800;DHT22;22752;51.960;5.886;2022-07-15T07:15:18;26.80;79.70
36800;DHT22;22752;51.960;5.886;2022-07-15T07:17:44;26.90;77.30
36800;DHT22;22752;51.960;5.886;2022-07-15T07:20:10;26.90;77.40
36800;DHT22;22752;51.960;5.886;2022-07-15T07:22:36;26.80;77.50
36800;DHT22;22752;51.960;5.886;2022-07-15T07:25:02;27.10;78.00
36800;DHT22;22752;51.960;5.886;2022-07-15T07:27:28;27.40;77.40
36800;DHT22;22752;51.960;5.886;2022-07-15T07:29:53;27.90;76.60
36800;DHT22;22752;51.960;5.886;2022-07-15T07:32:19;27.90;75.40
36800;DHT22;22752;51.960;5.886;2022-07-15T07:34:45;27.60;74.00
36800;DHT22;22752;51.960;5.886;2022-07-15T07:37:10;26.80;74.70
36800;DHT22;22752;51.960;5.886;2022-07-15T07:39:36;26.40;76.00
36800;DHT22;22752;51.960;5.886;2022-07-15T07:42:01;26.40;77.60
36800;DHT22;22752;51.960;5.886;2022-07-15T07:44:27;26.70;76.80
36800;DHT22;22752;51.960;5.886;2022-07-15T07:46:53;26.70;75.60
36800;DHT22;22752;51.960;5.886;2022-07-15T07:49:18;26.60;75.20
36800;DHT22;22752;51.960;5.886;2022-07-15T07:51:44;26.90;77.00
36800;DHT22;22752;51.960;5.886;2022-07-15T07:54:10;27.50;76.20
36800;DHT22;22752;51.960;5.886;2022-07-15T07:56:35;27.90;73.90
36800;DHT22;22752;51.960;5.886;2022-07-15T07:59:01;28.10;72.90
36800;DHT22;22752;51.960;5.886;2022-07-15T08:01:27;28.20;72.70
36800;DHT22;22752;51.960;5.886;2022-07-15T08:03:52;28.40;72.10
36800;DHT22;22752;51.960;5.886;2022-07-15T08:06:18;28.40;70.10
36800;DHT22;22752;51.960;5.886;2022-07-15T08:08:45;28.40;70.80
36800;DHT22;22752;51.960;5.886;2022-07-15T08:11:11;28.60;70.70
36800;DHT22;22752;51.960;5.886;2022-07-15T08:13:36;28.80;69.60
36800;DHT22;22752;51.960;5.886;2022-07-15T08:16:02;28.30;70.00
36800;DHT22;22752;51.960;5.886;2022-07-15T08:18:28;27.40;71.00
36800;DHT22;22752;51.960;5.886;2022-07-15T08:20:54;26.60;73.30
36800;DHT22;22752;51.960;5.886;2022-07-15T08:23:20;25.80;74.60
36800;DHT22;22752;51.960;5.886;2022-07-15T08:25:50;25.00;75.30
36800;DHT22;22752;51.960;5.886;2022-07-15T08:28:16;24.70;77.40
36800;DHT22;22752;51.960;5.886;2022-07-15T08:30:44;25.30;76.40
36800;DHT22;22752;51.960;5.886;2022-07-15T08:33:09;26.00;74.60
36800;DHT22;22752;51.960;5.886;2022-07-15T08:35:35;26.60;73.20
36800;DHT22;22752;51.960;5.886;2022-07-15T08:38:06;27.00;72.40
36800;DHT22;22752;51.960;5.886;2022-07-15T08:40:33;27.40;72.10
36800;DHT22;22752;51.960;5.886;2022-07-15T08:42:59;27.60;71.50
36800;DHT22;22752;51.960;5.886;2022-07-15T08:45:24;28.00;70.60
36800;DHT22;22752;51.960;5.886;2022-07-15T08:47:51;28.30;69.90
36800;DHT22;22752;51.960;5.886;2022-07-15T08:50:19;28.60;69.10
36800;DHT22;22752;51.960;5.886;2022-07-15T08:52:46;28.50;68.80
36800;DHT22;22752;51.960;5.886;2022-07-15T08:55:15;27.80;69.10
36800;DHT22;22752;51.960;5.886;2022-07-15T08:57:48;26.90;69.50
36800;DHT22;22752;51.960;5.886;2022-07-15T09:00:15;25.90;71.30
36800;DHT22;22752;51.960;5.886;2022-07-15T09:02:41;25.00;72.10
36800;DHT22;22752;51.960;5.886;2022-07-15T09:05:29;24.30;74.50
36800;DHT22;22752;51.960;5.886;2022-07-15T09:10:22;23.40;75.80
36800;DHT22;22752;51.960;5.886;2022-07-15T09:12:49;23.20;76.50
36800;DHT22;22752;51.960;5.886;2022-07-15T09:15:35;23.30;77.80
36800;DHT22;22752;51.960;5.886;2022-07-15T09:18:13;23.50;77.80
36800;DHT22;22752;51.960;5.886;2022-07-15T09:20:41;23.60;77.90
36800;DHT22;22752;51.960;5.886;2022-07-15T09:23:08;23.80;76.80
36800;DHT22;22752;51.960;5.886;2022-07-15T09:25:36;24.10;76.40
36800;DHT22;22752;51.960;5.886;2022-07-15T09:28:07;24.20;76.10
36800;DHT22;22752;51.960;5.886;2022-07-15T09:30:38;24.50;76.20
36800;DHT22;22752;51.960;5.886;2022-07-15T09:33:25;24.50;74.80
36800;DHT22;22752;51.960;5.886;2022-07-15T09:36:22;24.50;75.80
36800;DHT22;22752;51.960;5.886;2022-07-15T09:46:39;23.80;77.60
36800;DHT22;22752;51.960;5.886;2022-07-15T09:49:12;24.00;76.80
36800;DHT22;22752;51.960;5.886;2022-07-15T09:51:56;24.10;76.60
36800;DHT22;22752;51.960;5.886;2022-07-15T09:54:23;24.20;75.60
36800;DHT22;22752;51.960;5.886;2022-07-15T09:56:49;24.20;76.10
36800;DHT22;22752;51.960;5.886;2022-07-15T09:59:16;24.20;76.10
36800;DHT22;22752;51.960;5.886;2022-07-15T10:01:42;24.00;76.10
36800;DHT22;22752;51.960;5.886;2022-07-15T10:04:09;23.80;76.70
36800;DHT22;22752;51.960;5.886;2022-07-15T10:06:37;23.80;77.10
36800;DHT22;22752;51.960;5.886;2022-07-15T10:09:07;23.90;76.60
36800;DHT22;22752;51.960;5.886;2022-07-15T10:11:38;24.00;76.00
36800;DHT22;22752;51.960;5.886;2022-07-15T10:27:54;25.40;72.60
36800;DHT22;22752;51.960;5.886;2022-07-15T10:30:23;25.30;71.70
36800;DHT22;22752;51.960;5.886;2022-07-15T10:33:12;25.30;71.80
36800;DHT22;22752;51.960;5.886;2022-07-15T10:38:37;24.80;71.20
36800;DHT22;22752;51.960;5.886;2022-07-15T10:41:12;24.70;72.90
36800;DHT22;22752;51.960;5.886;2022-07-15T10:48:41;24.20;73.90
36800;DHT22;22752;51.960;5.886;2022-07-15T10:51:07;24.10;74.30
36800;DHT22;22752;51.960;5.886;2022-07-15T10:53:46;23.90;74.60
36800;DHT22;22752;51.960;5.886;2022-07-15T10:56:33;23.90;75.30
36800;DHT22;22752;51.960;5.886;2022-07-15T10:59:16;23.70;74.50
36800;DHT22;22752;51.960;5.886;2022-07-15T11:02:11;23.50;74.80
36800;DHT22;22752;51.960;5.886;2022-07-15T11:04:36;23.20;75.70
36800;DHT22;22752;51.960;5.886;2022-07-15T11:09:58;22.90;77.90
36800;DHT22;22752;51.960;5.886;2022-07-15T11:15:00;22.90;77.10
36800;DHT22;22752;51.960;5.886;2022-07-15T11:20:00;23.70;75.50
36800;DHT22;22752;51.960;5.886;2022-07-15T11:22:29;23.90;76.10
36800;DHT22;22752;51.960;5.886;2022-07-15T11:24:55;24.00;74.80
36800;DHT22;22752;51.960;5.886;2022-07-15T11:27:23;24.00;76.00
36800;DHT22;22752;51.960;5.886;2022-07-15T11:29:52;23.70;76.10
36800;DHT22;22752;51.960;5.886;2022-07-15T11:32:21;23.50;77.20
36800;DHT22;22752;51.960;5.886;2022-07-15T11:34:52;23.40;77.80
36800;DHT22;22752;51.960;5.886;2022-07-15T11:40:12;23.20;77.70
36800;DHT22;22752;51.960;5.886;2022-07-15T11:42:58;23.50;77.80
36800;DHT22;22752;51.960;5.886;2022-07-15T11:45:43;24.00;75.50
36800;DHT22;22752;51.960;5.886;2022-07-15T11:48:09;24.40;74.20
36800;DHT22;22752;51.960;5.886;2022-07-15T11:50:36;24.50;72.60
36800;DHT22;22752;51.960;5.886;2022-07-15T11:53:11;24.70;72.60
36800;DHT22;22752;51.960;5.886;2022-07-15T11:55:48;24.40;72.80
36800;DHT22;22752;51.960;5.886;2022-07-15T11:58:14;24.10;73.90
36800;DHT22;22752;51.960;5.886;2022-07-15T12:00:47;23.90;75.40
36800;DHT22;22752;51.960;5.886;2022-07-15T12:03:12;23.90;76.10
36800;DHT22;22752;51.960;5.886;2022-07-15T12:05:38;24.00;75.20
36800;DHT22;22752;51.960;5.886;2022-07-15T12:08:04;24.00;74.90
36800;DHT22;22752;51.960;5.886;2022-07-15T12:10:37;23.90;75.10
36800;DHT22;22752;51.960;5.886;2022-07-15T12:13:04;23.70;76.20
36800;DHT22;22752;51.960;5.886;2022-07-15T12:15:35;23.50;76.20
36800;DHT22;22752;51.960;5.886;2022-07-15T12:18:01;23.50;76.40
36800;DHT22;22752;51.960;5.886;2022-07-15T12:20:27;23.40;76.50
36800;DHT22;22752;51.960;5.886;2022-07-15T12:23:10;23.30;76.60
36800;DHT22;22752;51.960;5.886;2022-07-15T12:25:37;23.20;76.80
36800;DHT22;22752;51.960;5.886;2022-07-15T12:28:03;23.10;77.70
36800;DHT22;22752;51.960;5.886;2022-07-15T12:30:37;22.90;79.10
36800;DHT22;22752;51.960;5.886;2022-07-15T12:33:22;22.90;78.80
36800;DHT22;22752;51.960;5.886;2022-07-15T12:35:48;22.80;79.10
36800;DHT22;22752;51.960;5.886;2022-07-15T12:38:30;23.00;78.70
36800;DHT22;22752;51.960;5.886;2022-07-15T12:41:21;23.20;79.20
36800;DHT22;22752;51.960;5.886;2022-07-15T12:43:59;23.80;77.20
36800;DHT22;22752;51.960;5.886;2022-07-15T12:49:43;24.30;74.20
36800;DHT22;22752;51.960;5.886;2022-07-15T12:52:23;24.30;73.00
36800;DHT22;22752;51.960;5.886;2022-07-15T12:54:51;24.20;73.00
36800;DHT22;22752;51.960;5.886;2022-07-15T12:57:32;24.20;74.70
36800;DHT22;22752;51.960;5.886;2022-07-15T13:00:05;24.20;74.50
36800;DHT22;22752;51.960;5.886;2022-07-15T13:02:32;24.20;73.40
36800;DHT22;22752;51.960;5.886;2022-07-15T13:05:18;24.10;73.90
36800;DHT22;22752;51.960;5.886;2022-07-15T13:07:43;24.20;73.80
36800;DHT22;22752;51.960;5.886;2022-07-15T13:10:09;24.30;74.60
36800;DHT22;22752;51.960;5.886;2022-07-15T13:12:34;24.50;72.60
36800;DHT22;22752;51.960;5.886;2022-07-15T13:15:00;24.60;74.20
36800;DHT22;22752;51.960;5.886;2022-07-15T13:17:26;24.60;74.20
36800;DHT22;22752;51.960;5.886;2022-07-15T13:19:51;24.60;74.20
36800;DHT22;22752;51.960;5.886;2022-07-15T13:22:17;24.70;73.70
36800;DHT22;22752;51.960;5.886;2022-07-15T13:24:43;24.90;74.00
36800;DHT22;22752;51.960;5.886;2022-07-15T13:27:08;25.10;75.20
36800;DHT22;22752;51.960;5.886;2022-07-15T13:29:34;25.30;74.60
36800;DHT22;22752;51.960;5.886;2022-07-15T13:31:59;25.50;74.00
36800;DHT22;22752;51.960;5.886;2022-07-15T13:34:26;25.80;72.60
36800;DHT22;22752;51.960;5.886;2022-07-15T13:36:51;25.90;72.50
36800;DHT22;22752;51.960;5.886;2022-07-15T13:39:17;25.80;70.80
36800;DHT22;22752;51.960;5.886;2022-07-15T13:41:42;25.70;71.70
36800;DHT22;22752;51.960;5.886;2022-07-15T13:44:08;25.50;71.20
36800;DHT22;22752;51.960;5.886;2022-07-15T13:46:34;25.40;72.70
36800;DHT22;22752;51.960;5.886;2022-07-15T13:48:59;25.50;73.20
36800;DHT22;22752;51.960;5.886;2022-07-15T13:51:25;25.70;73.80
36800;DHT22;22752;51.960;5.886;2022-07-15T13:53:55;25.90;72.60
36800;DHT22;22752;51.960;5.886;2022-07-15T13:56:21;26.00;72.10
36800;DHT22;22752;51.960;5.886;2022-07-15T13:58:47;25.90;72.10
36800;DHT22;22752;51.960;5.886;2022-07-15T14:01:14;25.80;70.60
36800;DHT22;22752;51.960;5.886;2022-07-15T14:03:40;25.50;70.90
36800;DHT22;22752;51.960;5.886;2022-07-15T14:06:06;25.40;72.30
36800;DHT22;22752;51.960;5.886;2022-07-15T14:08:33;25.30;71.60
36800;DHT22;22752;51.960;5.886;2022-07-15T14:10:59;25.30;71.90
36800;DHT22;22752;51.960;5.886;2022-07-15T14:13:24;25.40;72.90
36800;DHT22;22752;51.960;5.886;2022-07-15T14:15:50;25.50;70.90
36800;DHT22;22752;51.960;5.886;2022-07-15T14:18:16;25.40;71.20
36800;DHT22;22752;51.960;5.886;2022-07-15T14:20:41;25.40;71.40
36800;DHT22;22752;51.960;5.886;2022-07-15T14:23:11;25.40;72.10
36800;DHT22;22752;51.960;5.886;2022-07-15T14:25:37;25.30;73.10
36800;DHT22;22752;51.960;5.886;2022-07-15T14:28:03;25.40;73.10
36800;DHT22;22752;51.960;5.886;2022-07-15T14:30:29;25.50;71.80
36800;DHT22;22752;51.960;5.886;2022-07-15T14:32:54;25.60;71.30
36800;DHT22;22752;51.960;5.886;2022-07-15T14:35:20;25.70;71.00
36800;DHT22;22752;51.960;5.886;2022-07-15T14:37:48;25.60;70.20
36800;DHT22;22752;51.960;5.886;2022-07-15T14:40:14;25.50;70.30
36800;DHT22;22752;51.960;5.886;2022-07-15T14:42:40;25.40;71.10
36800;DHT22;22752;51.960;5.886;2022-07-15T14:45:06;25.40;71.40
36800;DHT22;22752;51.960;5.886;2022-07-15T14:47:32;25.40;70.90
36800;DHT22;22752;51.960;5.886;2022-07-15T14:49:58;25.40;70.80
36800;DHT22;22752;51.960;5.886;2022-07-15T14:52:24;25.60;70.80
36800;DHT22;22752;51.960;5.886;2022-07-15T14:54:49;25.70;71.00
36800;DHT22;22752;51.960;5.886;2022-07-15T14:57:15;25.80;70.30
36800;DHT22;22752;51.960;5.886;2022-07-15T14:59:42;25.60;70.30
36800;DHT22;22752;51.960;5.886;2022-07-15T15:02:08;25.50;71.60
36800;DHT22;22752;51.960;5.886;2022-07-15T15:04:35;25.40;71.40
36800;DHT22;22752;51.960;5.886;2022-07-15T15:07:00;25.30;71.80
36800;DHT22;22752;51.960;5.886;2022-07-15T15:09:27;25.40;71.30
36800;DHT22;22752;51.960;5.886;2022-07-15T15:11:53;25.20;71.20
36800;DHT22;22752;51.960;5.886;2022-07-15T15:14:18;24.90;72.20
36800;DHT22;22752;51.960;5.886;2022-07-15T15:16:44;24.50;72.80
36800;DHT22;22752;51.960;5.886;2022-07-15T15:19:10;24.00;73.70
36800;DHT22;22752;51.960;5.886;2022-07-15T15:21:36;23.70;74.70
36800;DHT22;22752;51.960;5.886;2022-07-15T15:24:03;23.50;74.80
36800;DHT22;22752;51.960;5.886;2022-07-15T15:26:29;23.50;75.60
36800;DHT22;22752;51.960;5.886;2022-07-15T15:28:57;23.50;76.10
36800;DHT22;22752;51.960;5.886;2022-07-15T15:31:23;23.50;76.10
36800;DHT22;22752;51.960;5.886;2022-07-15T15:33:52;23.50;76.30
36800;DHT22;22752;51.960;5.886;2022-07-15T15:36:18;23.60;77.00
36800;DHT22;22752;51.960;5.886;2022-07-15T15:38:44;23.80;76.40
36800;DHT22;22752;51.960;5.886;2022-07-15T15:41:10;23.90;75.60
36800;DHT22;22752;51.960;5.886;2022-07-15T15:43:36;24.00;74.80
36800;DHT22;22752;51.960;5.886;2022-07-15T15:46:02;24.00;74.20
36800;DHT22;22752;51.960;5.886;2022-07-15T15:48:28;23.90;74.10
36800;DHT22;22752;51.960;5.886;2022-07-15T15:50:53;23.80;75.60
36800;DHT22;22752;51.960;5.886;2022-07-15T15:53:20;23.60;75.70
36800;DHT22;22752;51.960;5.886;2022-07-15T15:55:45;23.40;76.30
36800;DHT22;22752;51.960;5.886;2022-07-15T15:58:11;23.30;76.40
36800;DHT22;22752;51.960;5.886;2022-07-15T16:00:37;23.30;76.60
36800;DHT22;22752;51.960;5.886;2022-07-15T16:03:03;23.30;76.60
36800;DHT22;22752;51.960;5.886;2022-07-15T16:05:29;23.30;77.20
36800;DHT22;22752;51.960;5.886;2022-07-15T16:07:55;23.50;76.90
36800;DHT22;22752;51.960;5.886;2022-07-15T16:10:20;23.70;76.00
36800;DHT22;22752;51.960;5.886;2022-07-15T16:12:46;23.90;71.80
36800;DHT22;22752;51.960;5.886;2022-07-15T16:15:12;23.90;70.90
36800;DHT22;22752;51.960;5.886;2022-07-15T16:17:38;23.80;72.40
36800;DHT22;22752;51.960;5.886;2022-07-15T16:20:05;23.60;73.40